sensor_id;sensor_type;location;lat;lon;timestamp;P1;durP1;ratioP1;P2;durP2;ratioP2
62957;SDS011;49056;48.352;10.926;2023-08-06T00:04:24;1.13;;;0.80;;
62957;SDS011;49056;48.352;10.926;2023-08-06T00:09:44;1.43;;;0.70;;
62957;SDS011;49056;48.352;10.926;2023-08-06T00:15:05;1.40;;;0.70;;
62957;SDS011;49056;48.352;10.926;2023-08-06T00:20:25;1.62;;;0.88;;
62957;SDS011;49056;48.352;10.926;2023-08-06T00:25:45;0.95;;;0.73;;
62957;SDS011;49056;48.352;10.926;2023-08-06T00:31:06;1.40;;;0.65;;
62957;SDS011;49056;48.352;10.926;2023-08-06T00:36:26;1.50;;;0.80;;
62957;SDS011;49056;48.352;10.926;2023-08-06T00:41:47;1.45;;;0.80;;
62957;SDS011;49056;48.352;10.926;2023-08-06T00:47:07;0.83;;;0.60;;
62957;SDS011;49056;48.352;10.926;2023-08-06T00:52:27;1.65;;;0.75;;
62957;SDS011;49056;48.352;10.926;2023-08-06T00:57:48;0.60;;;0.57;;
62957;SDS011;49056;48.352;10.926;2023-08-06T01:03:08;1.02;;;0.60;;
62957;SDS011;49056;48.352;10.926;2023-08-06T01:14:12;1.58;;;0.60;;
62957;SDS011;49056;48.352;10.926;2023-08-06T01:19:33;1.10;;;0.60;;
62957;SDS011;49056;48.352;10.926;2023-08-06T01:24:54;0.90;;;0.80;;
62957;SDS011;49056;48.352;10.926;2023-08-06T01:30:18;1.08;;;0.70;;
62957;SDS011;49056;48.352;10.926;2023-08-06T01:35:40;0.70;;;0.60;;
62957;SDS011;49056;48.352;10.926;2023-08-06T01:41:00;0.90;;;0.57;;
62957;SDS011;49056;48.352;10.926;2023-08-06T01:46:21;1.55;;;0.95;;
62957;SDS011;49056;48.352;10.926;2023-08-06T01:51:41;0.98;;;0.70;;
62957;SDS011;49056;48.352;10.926;2023-08-06T01:57:01;1.00;;;0.60;;
62957;SDS011;49056;48.352;10.926;2023-08-06T02:02:22;1.80;;;0.95;;
62957;SDS011;49056;48.352;10.926;2023-08-06T02:07:42;1.05;;;0.50;;
62957;SDS011;49056;48.352;10.926;2023-08-06T02:13:02;1.27;;;0.57;;
62957;SDS011;49056;48.352;10.926;2023-08-06T02:18:23;0.95;;;0.80;;
62957;SDS011;49056;48.352;10.926;2023-08-06T02:23:43;0.93;;;0.60;;
62957;SDS011;49056;48.352;10.926;2023-08-06T02:29:03;0.80;;;0.70;;
62957;SDS011;49056;48.352;10.926;2023-08-06T02:34:24;0.77;;;0.50;;
62957;SDS011;49056;48.352;10.926;2023-08-06T02:39:44;1.05;;;0.68;;
62957;SDS011;49056;48.352;10.926;2023-08-06T02:45:05;2.22;;;0.75;;
62957;SDS011;49056;48.352;10.926;2023-08-06T02:50:26;1.10;;;0.77;;
62957;SDS011;49056;48.352;10.926;2023-08-06T02:55:46;0.55;;;0.40;;
62957;SDS011;49056;48.352;10.926;2023-08-06T03:01:10;0.88;;;0.50;;
62957;SDS011;49056;48.352;10.926;2023-08-06T03:06:30;1.15;;;0.57;;
62957;SDS011;49056;48.352;10.926;2023-08-06T03:11:51;1.08;;;0.68;;
62957;SDS011;49056;48.352;10.926;2023-08-06T03:17:11;0.80;;;0.50;;
62957;SDS011;49056;48.352;10.926;2023-08-06T03:22:32;0.60;;;0.60;;
62957;SDS011;49056;48.352;10.926;2023-08-06T03:27:52;0.97;;;0.60;;
62957;SDS011;49056;48.352;10.926;2023-08-06T03:33:12;1.30;;;0.60;;
62957;SDS011;49056;48.352;10.926;2023-08-06T03:38:33;1.55;;;0.70;;
62957;SDS011;49056;48.352;10.926;2023-08-06T03:43:53;1.23;;;0.50;;
62957;SDS011;49056;48.352;10.926;2023-08-06T03:49:13;1.05;;;0.62;;
62957;SDS011;49056;48.352;10.926;2023-08-06T03:54:34;0.80;;;0.45;;
62957;SDS011;49056;48.352;10.926;2023-08-06T03:59:54;0.85;;;0.55;;
62957;SDS011;49056;48.352;10.926;2023-08-06T04:05:15;0.55;;;0.50;;
62957;SDS011;49056;48.352;10.926;2023-08-06T04:10:35;1.00;;;0.40;;
62957;SDS011;49056;48.352;10.926;2023-08-06T04:16:00;1.12;;;0.60;;
62957;SDS011;49056;48.352;10.926;2023-08-06T04:21:21;1.08;;;0.52;;
62957;SDS011;49056;48.352;10.926;2023-08-06T04:26:41;0.65;;;0.50;;
62957;SDS011;49056;48.352;10.926;2023-08-06T04:32:01;0.95;;;0.65;;
62957;SDS011;49056;48.352;10.926;2023-08-06T04:37:21;1.17;;;0.40;;
62957;SDS011;49056;48.352;10.926;2023-08-06T04:42:42;1.00;;;0.45;;
62957;SDS011;49056;48.352;10.926;2023-08-06T04:48:02;0.50;;;0.40;;
62957;SDS011;49056;48.352;10.926;2023-08-06T04:53:23;0.45;;;0.43;;
62957;SDS011;49056;48.352;10.926;2023-08-06T04:58:43;0.82;;;0.50;;
62957;SDS011;49056;48.352;10.926;2023-08-06T05:04:03;1.20;;;0.73;;
62957;SDS011;49056;48.352;10.926;2023-08-06T05:09:23;0.87;;;0.50;;
62957;SDS011;49056;48.352;10.926;2023-08-06T05:14:44;0.87;;;0.60;;
62957;SDS011;49056;48.352;10.926;2023-08-06T05:20:04;1.33;;;0.40;;
62957;SDS011;49056;48.352;10.926;2023-08-06T05:25:25;1.50;;;0.70;;
62957;SDS011;49056;48.352;10.926;2023-08-06T05:30:45;1.40;;;0.50;;
62957;SDS011;49056;48.352;10.926;2023-08-06T05:36:05;0.88;;;0.55;;
62957;SDS011;49056;48.352;10.926;2023-08-06T05:41:26;0.43;;;0.37;;
62957;SDS011;49056;48.352;10.926;2023-08-06T05:46:46;0.80;;;0.40;;
62957;SDS011;49056;48.352;10.926;2023-08-06T05:52:06;0.37;;;0.20;;
62957;SDS011;49056;48.352;10.926;2023-08-06T05:57:28;0.90;;;0.37;;
62957;SDS011;49056;48.352;10.926;2023-08-06T06:02:48;1.10;;;0.50;;
62957;SDS011;49056;48.352;10.926;2023-08-06T06:08:09;0.43;;;0.30;;
62957;SDS011;49056;48.352;10.926;2023-08-06T06:13:29;0.70;;;0.40;;
62957;SDS011;49056;48.352;10.926;2023-08-06T06:18:49;0.93;;;0.60;;
62957;SDS011;49056;48.352;10.926;2023-08-06T06:24:09;0.20;;;0.20;;
62957;SDS011;49056;48.352;10.926;2023-08-06T06:29:30;0.75;;;0.47;;
62957;SDS011;49056;48.352;10.926;2023-08-06T06:34:50;0.93;;;0.40;;
62957;SDS011;49056;48.352;10.926;2023-08-06T06:40:11;0.50;;;0.17;;
62957;SDS011;49056;48.352;10.926;2023-08-06T06:45:31;0.93;;;0.30;;
62957;SDS011;49056;48.352;10.926;2023-08-06T06:50:52;1.07;;;0.60;;
62957;SDS011;49056;48.352;10.926;2023-08-06T06:56:12;1.07;;;0.30;;
62957;SDS011;49056;48.352;10.926;2023-08-06T07:01:32;0.65;;;0.30;;
62957;SDS011;49056;48.352;10.926;2023-08-06T07:06:53;0.30;;;0.23;;
62957;SDS011;49056;48.352;10.926;2023-08-06T07:12:14;0.68;;;0.37;;
62957;SDS011;49056;48.352;10.926;2023-08-06T07:17:34;0.93;;;0.40;;
62957;SDS011;49056;48.352;10.926;2023-08-06T07:22:54;0.40;;;0.30;;
62957;SDS011;49056;48.352;10.926;2023-08-06T07:28:15;0.30;;;0.30;;
62957;SDS011;49056;48.352;10.926;2023-08-06T07:33:35;0.88;;;0.30;;
62957;SDS011;49056;48.352;10.926;2023-08-06T07:38:56;0.80;;;0.50;;
62957;SDS011;49056;48.352;10.926;2023-08-06T07:44:16;0.95;;;0.30;;
62957;SDS011;49056;48.352;10.926;2023-08-06T07:49:37;0.67;;;0.43;;
62957;SDS011;49056;48.352;10.926;2023-08-06T07:54:57;1.17;;;0.30;;
62957;SDS011;49056;48.352;10.926;2023-08-06T08:00:18;0.20;;;0.20;;
62957;SDS011;49056;48.352;10.926;2023-08-06T08:05:39;0.32;;;0.20;;
62957;SDS011;49056;48.352;10.926;2023-08-06T08:10:59;0.20;;;0.10;;
62957;SDS011;49056;48.352;10.926;2023-08-06T08:16:20;0.13;;;0.13;;
62957;SDS011;49056;48.352;10.926;2023-08-06T08:21:41;1.03;;;0.30;;
62957;SDS011;49056;48.352;10.926;2023-08-06T08:27:01;0.30;;;0.20;;
62957;SDS011;49056;48.352;10.926;2023-08-06T08:32:21;0.40;;;0.20;;
62957;SDS011;49056;48.352;10.926;2023-08-06T08:37:42;0.65;;;0.43;;
62957;SDS011;49056;48.352;10.926;2023-08-06T08:43:03;0.30;;;0.28;;
62957;SDS011;49056;48.352;10.926;2023-08-06T08:48:24;0.60;;;0.30;;
62957;SDS011;49056;48.352;10.926;2023-08-06T08:53:47;0.20;;;0.20;;
62957;SDS011;49056;48.352;10.926;2023-08-06T08:59:07;0.55;;;0.20;;
62957;SDS011;49056;48.352;10.926;2023-08-06T09:04:31;0.32;;;0.10;;
62957;SDS011;49056;48.352;10.926;2023-08-06T09:09:55;0.10;;;0.10;;
62957;SDS011;49056;48.352;10.926;2023-08-06T09:15:16;0.45;;;0.20;;
62957;SDS011;49056;48.352;10.926;2023-08-06T09:20:40;0.63;;;0.30;;
62957;SDS011;49056;48.352;10.926;2023-08-06T09:26:00;0.70;;;0.30;;
62957;SDS011;49056;48.352;10.926;2023-08-06T09:31:22;0.00;;;0.00;;
62957;SDS011;49056;48.352;10.926;2023-08-06T09:36:42;0.75;;;0.28;;
62957;SDS011;49056;48.352;10.926;2023-08-06T09:42:03;0.10;;;0.10;;
62957;SDS011;49056;48.352;10.926;2023-08-06T09:47:24;0.10;;;0.03;;
62957;SDS011;49056;48.352;10.926;2023-08-06T09:52:44;0.37;;;0.10;;
62957;SDS011;49056;48.352;10.926;2023-08-06T09:58:05;0.30;;;0.10;;
62957;SDS011;49056;48.352;10.926;2023-08-06T10:03:27;0.00;;;0.00;;
62957;SDS011;49056;48.352;10.926;2023-08-06T10:08:47;0.17;;;0.10;;
62957;SDS011;49056;48.352;10.926;2023-08-06T10:14:09;0.10;;;0.00;;
62957;SDS011;49056;48.352;10.926;2023-08-06T10:19:31;0.00;;;0.00;;
62957;SDS011;49056;48.352;10.926;2023-08-06T10:24:53;0.50;;;0.30;;
62957;SDS011;49056;48.352;10.926;2023-08-06T10:35:50;0.10;;;0.10;;
62957;SDS011;49056;48.352;10.926;2023-08-06T10:41:14;0.00;;;0.00;;
62957;SDS011;49056;48.352;10.926;2023-08-06T10:46:36;0.20;;;0.00;;
62957;SDS011;49056;48.352;10.926;2023-08-06T10:51:56;0.43;;;0.10;;
62957;SDS011;49056;48.352;10.926;2023-08-06T10:57:17;0.27;;;0.17;;
62957;SDS011;49056;48.352;10.926;2023-08-06T11:02:37;0.40;;;0.03;;
62957;SDS011;49056;48.352;10.926;2023-08-06T11:07:57;0.00;;;0.00;;
62957;SDS011;49056;48.352;10.926;2023-08-06T11:13:18;0.32;;;0.05;;
62957;SDS011;49056;48.352;10.926;2023-08-06T11:18:41;0.00;;;0.00;;
62957;SDS011;49056;48.352;10.926;2023-08-06T11:24:02;0.00;;;0.00;;
62957;SDS011;49056;48.352;10.926;2023-08-06T11:29:22;0.10;;;0.00;;
62957;SDS011;49056;48.352;10.926;2023-08-06T11:34:43;0.00;;;0.00;;
62957;SDS011;49056;48.352;10.926;2023-08-06T11:40:05;2.47;;;0.10;;
62957;SDS011;49056;48.352;10.926;2023-08-06T11:45:28;0.10;;;0.00;;
62957;SDS011;49056;48.352;10.926;2023-08-06T11:50:48;0.17;;;0.10;;
62957;SDS011;49056;48.352;10.926;2023-08-06T11:56:08;0.00;;;0.00;;
62957;SDS011;49056;48.352;10.926;2023-08-06T12:01:29;0.00;;;0.00;;
62957;SDS011;49056;48.352;10.926;2023-08-06T12:06:49;0.47;;;0.03;;
62957;SDS011;49056;48.352;10.926;2023-08-06T12:12:09;0.15;;;0.10;;
62957;SDS011;49056;48.352;10.926;2023-08-06T12:17:30;0.00;;;0.00;;
62957;SDS011;49056;48.352;10.926;2023-08-06T12:22:50;0.23;;;0.17;;
62957;SDS011;49056;48.352;10.926;2023-08-06T12:28:10;0.00;;;0.00;;
62957;SDS011;49056;48.352;10.926;2023-08-06T12:33:32;0.10;;;0.08;;
62957;SDS011;49056;48.352;10.926;2023-08-06T12:38:52;0.43;;;0.10;;
62957;SDS011;49056;48.352;10.926;2023-08-06T12:44:12;0.10;;;0.10;;
62957;SDS011;49056;48.352;10.926;2023-08-06T12:49:33;0.00;;;0.00;;
62957;SDS011;49056;48.352;10.926;2023-08-06T12:54:53;0.00;;;0.00;;
62957;SDS011;49056;48.352;10.926;2023-08-06T13:00:13;0.00;;;0.00;;
62957;SDS011;49056;48.352;10.926;2023-08-06T13:05:34;0.08;;;0.08;;
62957;SDS011;49056;48.352;10.926;2023-08-06T13:10:54;0.03;;;0.03;;
62957;SDS011;49056;48.352;10.926;2023-08-06T13:16:14;0.00;;;0.00;;
62957;SDS011;49056;48.352;10.926;2023-08-06T13:21:57;0.00;;;0.00;;
62957;SDS011;49056;48.352;10.926;2023-08-06T13:27:15;0.00;;;0.00;;
62957;SDS011;49056;48.352;10.926;2023-08-06T13:32:35;0.00;;;0.00;;
62957;SDS011;49056;48.352;10.926;2023-08-06T13:37:57;0.00;;;0.00;;
62957;SDS011;49056;48.352;10.926;2023-08-06T13:43:17;0.00;;;0.00;;
62957;SDS011;49056;48.352;10.926;2023-08-06T13:48:39;0.10;;;0.10;;
62957;SDS011;49056;48.352;10.926;2023-08-06T13:53:59;0.00;;;0.00;;
62957;SDS011;49056;48.352;10.926;2023-08-06T13:59:20;0.15;;;0.10;;
62957;SDS011;49056;48.352;10.926;2023-08-06T14:04:40;0.00;;;0.00;;
62957;SDS011;49056;48.352;10.926;2023-08-06T14:10:00;0.00;;;0.00;;
62957;SDS011;49056;48.352;10.926;2023-08-06T14:15:21;0.00;;;0.00;;
62957;SDS011;49056;48.352;10.926;2023-08-06T14:20:41;0.00;;;0.00;;
62957;SDS011;49056;48.352;10.926;2023-08-06T14:26:02;0.00;;;0.00;;
62957;SDS011;49056;48.352;10.926;2023-08-06T14:31:22;0.00;;;0.00;;
62957;SDS011;49056;48.352;10.926;2023-08-06T14:36:42;0.00;;;0.00;;
62957;SDS011;49056;48.352;10.926;2023-08-06T14:42:03;0.08;;;0.00;;
62957;SDS011;49056;48.352;10.926;2023-08-06T14:47:23;0.00;;;0.00;;
62957;SDS011;49056;48.352;10.926;2023-08-06T14:52:44;0.00;;;0.00;;
62957;SDS011;49056;48.352;10.926;2023-08-06T14:58:04;0.00;;;0.00;;
62957;SDS011;49056;48.352;10.926;2023-08-06T15:03:24;0.00;;;0.00;;
62957;SDS011;49056;48.352;10.926;2023-08-06T15:08:45;0.00;;;0.00;;
62957;SDS011;49056;48.352;10.926;2023-08-06T15:14:07;0.00;;;0.00;;
62957;SDS011;49056;48.352;10.926;2023-08-06T15:19:27;0.00;;;0.00;;
62957;SDS011;49056;48.352;10.926;2023-08-06T15:24:47;0.00;;;0.00;;
62957;SDS011;49056;48.352;10.926;2023-08-06T15:30:08;0.00;;;0.00;;
62957;SDS011;49056;48.352;10.926;2023-08-06T15:35:28;0.00;;;0.00;;
62957;SDS011;49056;48.352;10.926;2023-08-06T15:40:48;0.32;;;0.10;;
62957;SDS011;49056;48.352;10.926;2023-08-06T15:46:09;0.30;;;0.10;;
62957;SDS011;49056;48.352;10.926;2023-08-06T15:51:29;0.00;;;0.00;;
62957;SDS011;49056;48.352;10.926;2023-08-06T15:56:49;0.00;;;0.00;;
62957;SDS011;49056;48.352;10.926;2023-08-06T16:02:10;0.00;;;0.00;;
62957;SDS011;49056;48.352;10.926;2023-08-06T16:07:30;0.00;;;0.00;;
62957;SDS011;49056;48.352;10.926;2023-08-06T16:12:50;0.08;;;0.08;;
62957;SDS011;49056;48.352;10.926;2023-08-06T16:18:11;0.13;;;0.10;;
62957;SDS011;49056;48.352;10.926;2023-08-06T16:23:31;0.32;;;0.20;;
62957;SDS011;49056;48.352;10.926;2023-08-06T16:28:51;0.37;;;0.10;;
62957;SDS011;49056;48.352;10.926;2023-08-06T16:34:12;0.28;;;0.00;;
62957;SDS011;49056;48.352;10.926;2023-08-06T16:39:32;0.20;;;0.10;;
62957;SDS011;49056;48.352;10.926;2023-08-06T16:44:52;0.20;;;0.00;;
62957;SDS011;49056;48.352;10.926;2023-08-06T16:50:13;0.10;;;0.10;;
62957;SDS011;49056;48.352;10.926;2023-08-06T16:55:33;0.10;;;0.00;;
62957;SDS011;49056;48.352;10.926;2023-08-06T17:00:53;0.10;;;0.10;;
62957;SDS011;49056;48.352;10.926;2023-08-06T17:06:15;0.25;;;0.00;;
62957;SDS011;49056;48.352;10.926;2023-08-06T17:11:36;0.00;;;0.00;;
62957;SDS011;49056;48.352;10.926;2023-08-06T17:16:57;0.43;;;0.20;;
62957;SDS011;49056;48.352;10.926;2023-08-06T17:22:17;0.90;;;0.17;;
62957;SDS011;49056;48.352;10.926;2023-08-06T17:27:38;0.40;;;0.00;;
62957;SDS011;49056;48.352;10.926;2023-08-06T17:32:58;0.00;;;0.00;;
62957;SDS011;49056;48.352;10.926;2023-08-06T17:38:18;0.17;;;0.10;;
62957;SDS011;49056;48.352;10.926;2023-08-06T17:43:39;0.47;;;0.27;;
62957;SDS011;49056;48.352;10.926;2023-08-06T17:48:59;0.62;;;0.20;;
62957;SDS011;49056;48.352;10.926;2023-08-06T17:54:21;0.10;;;0.10;;
62957;SDS011;49056;48.352;10.926;2023-08-06T17:59:41;1.40;;;0.37;;
62957;SDS011;49056;48.352;10.926;2023-08-06T18:05:02;0.20;;;0.20;;
62957;SDS011;49056;48.352;10.926;2023-08-06T18:10:22;1.60;;;0.27;;
62957;SDS011;49056;48.352;10.926;2023-08-06T18:15:42;0.53;;;0.20;;
62957;SDS011;49056;48.352;10.926;2023-08-06T18:21:03;0.73;;;0.73;;
62957;SDS011;49056;48.352;10.926;2023-08-06T18:26:24;0.10;;;0.10;;
62957;SDS011;49056;48.352;10.926;2023-08-06T18:31:45;0.13;;;0.10;;
62957;SDS011;49056;48.352;10.926;2023-08-06T18:37:06;0.05;;;0.05;;
62957;SDS011;49056;48.352;10.926;2023-08-06T18:42:27;0.10;;;0.10;;
62957;SDS011;49056;48.352;10.926;2023-08-06T18:47:48;0.55;;;0.10;;
62957;SDS011;49056;48.352;10.926;2023-08-06T18:53:08;0.10;;;0.10;;
62957;SDS011;49056;48.352;10.926;2023-08-06T18:58:28;0.05;;;0.05;;
62957;SDS011;49056;48.352;10.926;2023-08-06T19:03:49;0.40;;;0.20;;
62957;SDS011;49056;48.352;10.926;2023-08-06T19:09:09;1.10;;;0.10;;
62957;SDS011;49056;48.352;10.926;2023-08-06T19:14:29;0.32;;;0.20;;
62957;SDS011;49056;48.352;10.926;2023-08-06T19:19:50;0.20;;;0.00;;
62957;SDS011;49056;48.352;10.926;2023-08-06T19:25:10;0.28;;;0.10;;
62957;SDS011;49056;48.352;10.926;2023-08-06T19:30:30;0.00;;;0.00;;
62957;SDS011;49056;48.352;10.926;2023-08-06T19:35:52;0.10;;;0.10;;
62957;SDS011;49056;48.352;10.926;2023-08-06T19:41:13;0.32;;;0.10;;
62957;SDS011;49056;48.352;10.926;2023-08-06T19:46:33;0.50;;;0.10;;
62957;SDS011;49056;48.352;10.926;2023-08-06T19:51:53;0.40;;;0.13;;
62957;SDS011;49056;48.352;10.926;2023-08-06T19:57:14;0.10;;;0.10;;
62957;SDS011;49056;48.352;10.926;2023-08-06T20:02:35;0.05;;;0.00;;
62957;SDS011;49056;48.352;10.926;2023-08-06T20:07:56;0.10;;;0.10;;
62957;SDS011;49056;48.352;10.926;2023-08-06T20:13:16;0.20;;;0.20;;
62957;SDS011;49056;48.352;10.926;2023-08-06T20:18:36;1.17;;;0.13;;
62957;SDS011;49056;48.352;10.926;2023-08-06T20:23:57;0.50;;;0.10;;
62957;SDS011;49056;48.352;10.926;2023-08-06T20:29:17;0.10;;;0.10;;
62957;SDS011;49056;48.352;10.926;2023-08-06T20:34:38;0.28;;;0.10;;
62957;SDS011;49056;48.352;10.926;2023-08-06T20:39:58;0.28;;;0.20;;
62957;SDS011;49056;48.352;10.926;2023-08-06T20:45:18;0.30;;;0.15;;
62957;SDS011;49056;48.352;10.926;2023-08-06T20:50:39;0.08;;;0.08;;
62957;SDS011;49056;48.352;10.926;2023-08-06T20:55:59;0.22;;;0.20;;
62957;SDS011;49056;48.352;10.926;2023-08-06T21:01:20;0.15;;;0.10;;
62957;SDS011;49056;48.352;10.926;2023-08-06T21:06:40;0.30;;;0.20;;
62957;SDS011;49056;48.352;10.926;2023-08-06T21:12:01;0.40;;;0.10;;
62957;SDS011;49056;48.352;10.926;2023-08-06T21:17:21;0.57;;;0.20;;
62957;SDS011;49056;48.352;10.926;2023-08-06T21:22:42;0.90;;;0.32;;
62957;SDS011;49056;48.352;10.926;2023-08-06T21:28:02;0.47;;;0.25;;
62957;SDS011;49056;48.352;10.926;2023-08-06T21:33:27;1.07;;;0.10;;
62957;SDS011;49056;48.352;10.926;2023-08-06T21:38:47;0.60;;;0.28;;
62957;SDS011;49056;48.352;10.926;2023-08-06T21:44:08;0.15;;;0.00;;
62957;SDS011;49056;48.352;10.926;2023-08-06T21:49:28;0.20;;;0.17;;
62957;SDS011;49056;48.352;10.926;2023-08-06T21:54:49;0.50;;;0.28;;
62957;SDS011;49056;48.352;10.926;2023-08-06T22:00:10;0.73;;;0.20;;
62957;SDS011;49056;48.352;10.926;2023-08-06T22:05:31;0.25;;;0.10;;
62957;SDS011;49056;48.352;10.926;2023-08-06T22:10:53;0.40;;;0.20;;
62957;SDS011;49056;48.352;10.926;2023-08-06T22:16:13;0.45;;;0.15;;
62957;SDS011;49056;48.352;10.926;2023-08-06T22:21:34;0.98;;;0.40;;
62957;SDS011;49056;48.352;10.926;2023-08-06T22:26:54;0.43;;;0.20;;
62957;SDS011;49056;48.352;10.926;2023-08-06T22:32:14;0.43;;;0.28;;
62957;SDS011;49056;48.352;10.926;2023-08-06T22:37:35;0.73;;;0.32;;
62957;SDS011;49056;48.352;10.926;2023-08-06T22:42:55;0.40;;;0.20;;
62957;SDS011;49056;48.352;10.926;2023-08-06T22:48:15;0.10;;;0.10;;
62957;SDS011;49056;48.352;10.926;2023-08-06T22:53:36;0.43;;;0.25;;
62957;SDS011;49056;48.352;10.926;2023-08-06T22:58:56;0.40;;;0.10;;
62957;SDS011;49056;48.352;10.926;2023-08-06T23:04:16;0.73;;;0.35;;
62957;SDS011;49056;48.352;10.926;2023-08-06T23:09:37;0.40;;;0.10;;
62957;SDS011;49056;48.352;10.926;2023-08-06T23:14:57;0.20;;;0.10;;
62957;SDS011;49056;48.352;10.926;2023-08-06T23:20:17;0.10;;;0.10;;
62957;SDS011;49056;48.352;10.926;2023-08-06T23:25:38;0.15;;;0.10;;
62957;SDS011;49056;48.352;10.926;2023-08-06T23:30:58;0.22;;;0.20;;
62957;SDS011;49056;48.352;10.926;2023-08-06T23:36:18;0.55;;;0.28;;
62957;SDS011;49056;48.352;10.926;2023-08-06T23:41:38;0.00;;;0.00;;
62957;SDS011;49056;48.352;10.926;2023-08-06T23:46:59;0.35;;;0.25;;
62957;SDS011;49056;48.352;10.926;2023-08-06T23:52:19;0.40;;;0.30;;
62957;SDS011;49056;48.352;10.926;2023-08-06T23:57:40;0.20;;;0.10;;
